バクー の空港の天気 - METARとTAF

ヘイダル・アリエフ国際空港(バクー) ( UBBB / BAK ) - アゼルバイジャン バクー
飛行場実況気象(Metar)
観測時間08/22 20:30 AZT (08/22 16:30 UTC)
風向・風速南南東 3m/s
視程10km以上
天気現象
なし
気温28℃
湿度66%
気圧1010hPa
METARUBBB 221630Z 16005KT CAVOK 28/21 Q1010 R88/D NOSIG
過去の天気等 Google飛行場航空写真 Wunderground天気予報

過去48時間のMETAR

飛行場予報(TAF)
発表時間: 8/22 15:09 AZT (8/22 11:09 UTC)
予報対象時間: 22日16時 AZT ~ 23日16時 AZT
風向・風速南 5m/s
視程10km以上
なし
22日16時 AZT ~ 22日22時 AZT に一時的に
風向・風速不定 2m/s
22日22時 AZT ~ 22日24時 AZT に徐々に
風向・風速北西 3m/s
23日0時 AZT ~ 23日7時 AZT に一時的に
風向・風速不定 2m/s
視程2000m
天気現象もや
少しの雲 雲底高度 90m
23日10時 AZT ~ 23日12時 AZT に徐々に
風向・風速南東 5m/s
TAF UBBB 221109Z 2212/2312 17010KT CAVOK TX36/2212Z TN19/2302Z
TEMPO 2212/2218 VRB04KT
BECMG 2218/2220 32006KT
TEMPO 2220/2303 VRB04KT 2000 BR FEW003
BECMG 2306/2308 14010KT